Time;durP1;ratioP1;P1;durP2;ratioP2;P2;SDS_P1;SDS_P2;PMS_P1;PMS_P2;Temp;Humidity;BMP_temperature;BMP_pressure;BME280_temperature;BME280_humidity;BME280_pressure;Samples;Min_cycle;Max_cycle;Signal;HPM_P1;HPM_P2
2022/04/13 00:02:20;;;;;;;0.30;0.30;;;;;;;23.31;13.88;101177.22;5036204;28;20033;-76
2022/04/13 00:04:45;;;;;;;0.30;0.30;;;;;;;23.31;13.87;101179.13;5036370;28;20054;-76
2022/04/13 00:07:11;;;;;;;0.30;0.30;;;;;;;23.31;13.61;101177.22;5051541;28;20100;-76
2022/04/13 00:09:36;;;;;;;0.30;0.30;;;;;;;23.31;13.74;101174.50;5036552;28;20036;-76
2022/04/13 00:12:03;;;;;;;0.38;0.38;;;;;;;23.29;13.90;101184.84;5037070;28;20021;-75
2022/04/13 00:14:29;;;;;;;0.30;0.30;;;;;;;23.28;13.86;101185.09;5036339;28;20026;-75
2022/04/13 00:16:54;;;;;;;0.50;0.40;;;;;;;23.29;13.62;101182.13;5037031;28;20541;-76
2022/04/13 00:19:21;;;;;;;0.40;0.40;;;;;;;23.29;13.60;101187.56;5036597;28;20026;-75
2022/04/13 00:21:47;;;;;;;0.30;0.30;;;;;;;23.29;13.73;101187.56;5035055;28;20026;-75
2022/04/13 00:24:13;;;;;;;0.40;0.40;;;;;;;23.28;13.79;101188.63;5036198;28;20464;-76
2022/04/13 00:26:39;;;;;;;0.40;0.20;;;;;;;23.28;13.73;101185.09;5051319;28;20418;-75
2022/04/13 00:29:04;;;;;;;0.30;0.30;;;;;;;23.28;13.67;101193.28;5034584;28;20022;-75
2022/04/13 00:31:30;;;;;;;0.30;0.30;;;;;;;23.25;13.69;101189.97;5016241;28;20413;-75
2022/04/13 00:33:56;;;;;;;0.30;0.30;;;;;;;23.27;13.53;101192.44;5014572;28;20037;-75
2022/04/13 00:36:21;;;;;;;0.40;0.40;;;;;;;23.27;13.60;101194.34;4998561;28;20034;-75
2022/04/13 00:38:46;;;;;;;0.40;0.40;;;;;;;23.26;13.53;101198.97;5015630;28;20034;-76
2022/04/13 00:41:17;;;;;;;0.32;0.32;;;;;;;23.25;13.67;101194.63;5014813;28;20424;-76
2022/04/13 00:43:43;;;;;;;0.40;0.40;;;;;;;23.25;13.63;101197.34;5015498;28;20479;-76
2022/04/13 00:46:08;;;;;;;0.30;0.30;;;;;;;23.24;13.76;101203.88;5015880;28;20041;-75
2022/04/13 00:48:39;;;;;;;0.30;0.30;;;;;;;23.25;13.75;101202.78;5014190;28;20448;-76
2022/04/13 00:51:05;;;;;;;0.30;0.30;;;;;;;23.25;13.57;101202.78;5015569;28;20030;-76
2022/04/13 00:53:30;;;;;;;0.20;0.20;;;;;;;23.25;13.66;101203.63;5014479;28;20033;-75
2022/04/13 00:55:58;;;;;;;0.30;0.30;;;;;;;23.24;13.48;101201.13;5015840;28;20256;-75
2022/04/13 00:58:27;;;;;;;0.20;0.20;;;;;;;23.25;13.73;101200.06;5015652;28;20036;-75
2022/04/13 01:00:53;;;;;;;0.25;0.25;;;;;;;23.22;13.63;101200.56;5015270;28;20037;-76
2022/04/13 01:03:23;;;;;;;0.30;0.30;;;;;;;23.21;13.52;101197.00;5015631;28;20022;-75
2022/04/13 01:05:49;;;;;;;0.38;0.35;;;;;;;23.22;13.63;101198.66;5014809;28;20026;-76
2022/04/13 01:08:15;;;;;;;0.28;0.28;;;;;;;23.23;13.55;101202.19;5015347;28;20048;-75
2022/04/13 01:10:41;;;;;;;0.35;0.35;;;;;;;23.21;13.68;101196.19;5015616;28;20167;-75
2022/04/13 01:13:07;;;;;;;0.30;0.30;;;;;;;23.21;13.55;101196.19;5015117;28;20026;-75
2022/04/13 01:15:33;;;;;;;0.30;0.30;;;;;;;23.21;13.63;101196.19;5015452;28;20032;-75
2022/04/13 01:17:58;;;;;;;0.40;0.40;;;;;;;23.21;13.40;101204.34;5013834;28;20420;-75
2022/04/13 01:20:24;;;;;;;0.20;0.20;;;;;;;23.21;13.36;101196.19;5014016;28;20030;-76
2022/04/13 01:22:49;;;;;;;0.30;0.30;;;;;;;23.21;13.59;101196.19;5014708;28;20022;-75
2022/04/13 01:25:15;;;;;;;0.32;0.32;;;;;;;23.21;13.36;101201.63;5014485;28;20026;-75
2022/04/13 01:27:40;;;;;;;0.30;0.30;;;;;;;23.20;13.54;101194.56;5015481;28;20464;-76
2022/04/13 01:30:07;;;;;;;0.20;0.20;;;;;;;23.19;13.63;101192.88;5021890;28;20472;-76
2022/04/13 01:32:32;;;;;;;0.20;0.20;;;;;;;23.17;13.52;101192.31;5034762;28;20079;-75
2022/04/13 01:34:58;;;;;;;0.20;0.20;;;;;;;23.18;13.45;101199.41;5049848;28;20026;-75
2022/04/13 01:37:23;;;;;;;0.20;0.20;;;;;;;23.20;13.56;101194.56;5034412;28;20053;-75
2022/04/13 01:39:49;;;;;;;0.30;0.30;;;;;;;23.19;13.44;101211.97;5032892;28;20054;-76
2022/04/13 01:42:14;;;;;;;0.30;0.30;;;;;;;23.19;13.56;101207.34;5034373;28;20022;-76
2022/04/13 01:44:42;;;;;;;0.30;0.30;;;;;;;23.18;13.55;101211.16;5034485;28;20021;-76
2022/04/13 01:47:08;;;;;;;0.22;0.22;;;;;;;23.18;13.67;101213.03;5034165;28;20052;-75
2022/04/13 01:49:35;;;;;;;0.20;0.20;;;;;;;23.18;13.50;101213.03;5032891;28;20036;-76
2022/04/13 01:52:01;;;;;;;0.28;0.28;;;;;;;23.17;13.84;101212.22;5034101;28;20030;-75
2022/04/13 01:54:27;;;;;;;0.30;0.30;;;;;;;23.17;13.66;101214.13;5034642;28;20036;-76
2022/04/13 01:56:52;;;;;;;0.20;0.20;;;;;;;23.17;13.70;101214.13;5034525;28;20427;-76
2022/04/13 01:59:18;;;;;;;0.30;0.30;;;;;;;23.16;13.65;101224.22;5034567;28;20464;-75
2022/04/13 02:01:43;;;;;;;0.20;0.20;;;;;;;23.16;13.76;101224.22;5034641;28;20112;-75
2022/04/13 02:04:16;;;;;;;0.30;0.30;;;;;;;23.17;13.62;101225.03;5049419;28;20078;-75
2022/04/13 02:06:42;;;;;;;0.20;0.20;;;;;;;23.17;13.59;101227.75;5049142;28;20380;-75
2022/04/13 02:09:07;;;;;;;0.30;0.30;;;;;;;23.17;13.61;101223.13;5034048;28;20025;-75
2022/04/13 02:11:32;;;;;;;0.22;0.22;;;;;;;23.17;13.61;101231.31;5033877;28;20036;-76
2022/04/13 02:13:58;;;;;;;0.20;0.20;;;;;;;23.16;13.50;101232.41;5033835;28;20025;-75
2022/04/13 02:16:24;;;;;;;0.20;0.20;;;;;;;23.16;13.54;101226.09;5033934;28;20029;-76
2022/04/13 02:18:49;;;;;;;0.20;0.20;;;;;;;23.17;13.44;101233.22;5033997;28;20033;-75
2022/04/13 02:21:15;;;;;;;0.20;0.20;;;;;;;23.14;13.68;101226.34;5032687;28;20360;-75
2022/04/13 02:23:42;;;;;;;0.20;0.20;;;;;;;23.15;13.68;101229.94;5033473;28;20490;-75
2022/04/13 02:26:07;;;;;;;0.20;0.20;;;;;;;23.14;13.62;101239.16;5033501;28;20026;-75
2022/04/13 02:28:33;;;;;;;0.30;0.30;;;;;;;23.13;13.47;101238.34;5033780;28;20025;-75
2022/04/13 02:30:58;;;;;;;0.28;0.28;;;;;;;23.15;13.52;101243.56;5020798;28;20049;-76
2022/04/13 02:33:24;;;;;;;0.28;0.28;;;;;;;23.15;13.63;101241.66;5012664;28;20129;-75
2022/04/13 02:35:49;;;;;;;0.20;0.20;;;;;;;23.14;13.60;101244.63;5014496;28;20528;-75
2022/04/13 02:38:16;;;;;;;0.20;0.20;;;;;;;23.13;13.65;101246.53;5013584;28;20075;-75
2022/04/13 02:40:42;;;;;;;0.10;0.10;;;;;;;23.12;13.51;101246.78;5013510;28;20131;-75
2022/04/13 02:43:08;;;;;;;0.20;0.20;;;;;;;23.12;13.56;101250.31;5013806;28;20028;-75
2022/04/13 02:45:34;;;;;;;0.20;0.20;;;;;;;23.12;13.47;101255.78;5013947;28;20373;-76
2022/04/13 02:48:00;;;;;;;0.20;0.20;;;;;;;23.11;13.66;101251.41;5013690;28;20030;-75
2022/04/13 02:50:26;;;;;;;0.20;0.20;;;;;;;23.12;13.45;101265.88;5013528;28;20030;-75
2022/04/13 02:52:54;;;;;;;0.20;0.20;;;;;;;23.13;13.60;101262.03;5013912;28;20022;-76
2022/04/13 02:55:20;;;;;;;0.13;0.13;;;;;;;23.11;13.51;101261.47;5013251;28;20029;-75
2022/04/13 02:57:45;;;;;;;0.20;0.20;;;;;;;23.13;13.44;101270.22;5013344;28;20109;-75
2022/04/13 03:00:11;;;;;;;0.20;0.20;;;;;;;23.13;13.45;101271.06;5012252;28;20025;-76
2022/04/13 03:02:39;;;;;;;0.30;0.30;;;;;;;23.11;13.34;101264.19;5014020;28;20112;-75
2022/04/13 03:05:05;;;;;;;0.22;0.22;;;;;;;23.11;13.56;101267.78;5013681;28;20045;-77
2022/04/13 03:07:32;;;;;;;0.10;0.10;;;;;;;23.13;13.45;101276.53;5011750;28;20124;-75
2022/04/13 03:10:00;;;;;;;0.20;0.20;;;;;;;23.13;13.45;101276.53;5013695;28;20030;-75
2022/04/13 03:12:26;;;;;;;0.40;0.30;;;;;;;23.15;13.22;101281.72;5013464;28;20030;-76
2022/04/13 03:14:51;;;;;;;0.20;0.20;;;;;;;23.11;13.57;101284.13;5012054;28;20050;-77
2022/04/13 03:17:17;;;;;;;0.20;0.20;;;;;;;23.12;13.45;101279.50;5012236;28;20325;-77
2022/04/13 03:19:42;;;;;;;0.20;0.20;;;;;;;23.14;13.39;101288.25;5012036;28;20026;-77
2022/04/13 03:22:08;;;;;;;0.30;0.30;;;;;;;23.14;13.46;101289.06;5012486;28;20022;-77
2022/04/13 03:24:36;;;;;;;0.20;0.20;;;;;;;23.13;13.28;101284.69;5013323;28;20376;-77
2022/04/13 03:27:01;;;;;;;0.40;0.20;;;;;;;23.15;13.39;101284.47;5012169;28;20022;-77
2022/04/13 03:29:27;;;;;;;0.30;0.30;;;;;;;23.16;13.43;101283.34;4999791;28;20483;-77
2022/04/13 03:31:52;;;;;;;0.20;0.20;;;;;;;23.16;13.24;101291.53;5035684;28;20029;-77
2022/04/13 03:34:20;;;;;;;0.25;0.25;;;;;;;23.15;13.48;101284.47;5036486;28;20036;-77
2022/04/13 03:36:49;;;;;;;0.30;0.30;;;;;;;23.15;13.51;101284.47;5035637;28;20074;-77
2022/04/13 03:39:15;;;;;;;0.30;0.30;;;;;;;23.16;13.50;101286.09;5051396;28;20492;-77
2022/04/13 03:41:40;;;;;;;0.25;0.25;;;;;;;23.15;13.39;101289.91;5035527;28;20025;-77
2022/04/13 03:44:06;;;;;;;0.20;0.20;;;;;;;23.14;13.50;101293.69;5036980;28;20384;-77
2022/04/13 03:46:31;;;;;;;0.20;0.20;;;;;;;23.14;13.43;101293.69;5036853;28;20325;-77
2022/04/13 03:48:57;;;;;;;0.68;0.20;;;;;;;23.13;13.44;101289.31;5036938;28;20041;-77
2022/04/13 03:51:22;;;;;;;0.20;0.20;;;;;;;23.16;13.32;101291.53;5037104;28;20048;-76
2022/04/13 03:53:48;;;;;;;0.20;0.20;;;;;;;23.19;13.52;101301.94;5036549;28;20068;-78
2022/04/13 03:56:13;;;;;;;0.20;0.20;;;;;;;23.21;13.62;101306.06;5036533;28;20041;-77
2022/04/13 03:58:40;;;;;;;0.20;0.20;;;;;;;23.25;13.46;101306.41;5035365;28;20472;-76
2022/04/13 04:01:07;;;;;;;1.55;1.20;;;;;;;23.27;13.48;101304.25;5035327;28;20025;-76
2022/04/13 04:03:34;;;;;;;5.82;2.47;;;;;;;23.31;13.37;101315.50;5035170;28;20029;-76
2022/04/13 04:05:59;;;;;;;4.10;2.35;;;;;;;23.34;13.34;101313.09;5034685;28;20033;-76
2022/04/13 04:08:26;;;;;;;6.20;2.60;;;;;;;23.37;13.36;101318.06;5036511;28;20026;-77
2022/04/13 04:10:52;;;;;;;5.00;2.22;;;;;;;23.40;13.39;101323.00;5036382;28;20034;-77
2022/04/13 04:13:17;;;;;;;3.28;1.65;;;;;;;23.42;13.60;101320.84;5035197;28;20025;-76
2022/04/13 04:15:43;;;;;;;4.75;1.98;;;;;;;23.43;13.64;101322.50;5051778;28;20075;-76
2022/04/13 04:18:08;;;;;;;9.73;4.28;;;;;;;23.48;13.44;101323.66;5051243;28;20093;-76
2022/04/13 04:20:34;;;;;;;8.40;3.90;;;;;;;23.44;13.70;101326.06;5036377;28;20036;-76
2022/04/13 04:23:00;;;;;;;8.73;3.55;;;;;;;23.55;13.94;101327.03;5036702;28;20021;-75
2022/04/13 04:25:25;;;;;;;6.15;2.75;;;;;;;23.27;14.04;101337.00;5036299;28;20121;-76
2022/04/13 04:27:50;;;;;;;4.35;2.05;;;;;;;23.46;13.86;101328.50;5051827;28;20026;-77
2022/04/13 04:30:16;;;;;;;3.17;1.60;;;;;;;23.51;13.77;101320.41;5032351;28;20087;-76
2022/04/13 04:32:41;;;;;;;1.58;1.10;;;;;;;23.42;13.64;101329.03;5016412;28;20030;-76
2022/04/13 04:35:07;;;;;;;2.53;1.20;;;;;;;23.49;13.63;101325.28;5015894;28;20029;-76
2022/04/13 04:37:33;;;;;;;1.90;0.90;;;;;;;23.77;13.46;101333.31;5017549;28;20026;-76
2022/04/13 04:39:58;;;;;;;1.27;0.90;;;;;;;23.91;13.30;101335.72;5015035;28;20050;-75
2022/04/13 04:42:25;;;;;;;1.00;0.60;;;;;;;23.99;13.17;101337.97;5016588;28;20022;-76
2022/04/13 04:44:57;;;;;;;1.40;0.82;;;;;;;24.21;13.05;101339.88;5016311;28;20036;-76
2022/04/13 04:47:23;;;;;;;0.98;0.70;;;;;;;24.36;13.03;101343.59;5017015;28;20419;-78
2022/04/13 04:49:48;;;;;;;2.08;0.50;;;;;;;24.48;12.88;101348.09;5016413;28;20026;-76
2022/04/13 04:52:14;;;;;;;2.35;0.60;;;;;;;24.58;12.49;101339.19;5015710;28;20022;-76
2022/04/13 04:54:39;;;;;;;1.42;0.50;;;;;;;24.63;12.47;101347.44;5016602;28;20085;-76
2022/04/13 04:57:05;;;;;;;1.45;0.32;;;;;;;24.68;12.67;101350.22;5014429;28;20069;-78
2022/04/13 04:59:30;;;;;;;0.30;0.30;;;;;;;24.74;12.84;101351.94;5015702;28;20026;-77
2022/04/13 05:01:55;;;;;;;0.30;0.30;;;;;;;24.77;12.83;101351.41;5014679;28;20022;-76
2022/04/13 05:04:21;;;;;;;0.35;0.30;;;;;;;24.72;12.70;101354.91;5016759;28;20025;-75
2022/04/13 05:06:47;;;;;;;0.35;0.30;;;;;;;24.73;12.54;101358.47;5014760;28;20032;-75
2022/04/13 05:09:12;;;;;;;0.40;0.40;;;;;;;24.71;12.67;101366.94;5016110;28;20070;-76
2022/04/13 05:11:38;;;;;;;1.13;0.40;;;;;;;24.67;12.83;101359.53;5017255;28;20322;-75
2022/04/13 05:14:04;;;;;;;0.20;0.20;;;;;;;24.71;12.71;101366.13;5016248;28;20488;-76
2022/04/13 05:16:30;;;;;;;0.35;0.20;;;;;;;24.69;12.71;101365.56;5017391;28;20085;-76
2022/04/13 05:18:55;;;;;;;1.80;0.30;;;;;;;24.69;12.91;101363.63;5017501;28;20037;-78
2022/04/13 05:21:20;;;;;;;0.32;0.32;;;;;;;24.71;12.86;101363.38;5017548;28;20026;-77
2022/04/13 05:23:46;;;;;;;0.30;0.30;;;;;;;24.74;12.70;101365.59;5017904;28;20524;-77
2022/04/13 05:26:11;;;;;;;0.20;0.20;;;;;;;24.51;12.99;101372.19;5017541;28;20435;-77
2022/04/13 05:28:37;;;;;;;1.90;0.30;;;;;;;24.47;12.70;101363.66;5016783;28;20526;-78
2022/04/13 05:31:02;;;;;;;0.20;0.20;;;;;;;24.60;12.65;101365.19;5026336;28;20021;-77
2022/04/13 05:33:28;;;;;;;0.50;0.20;;;;;;;24.75;12.43;101372.72;5036366;28;20032;-77
2022/04/13 05:35:53;;;;;;;0.30;0.20;;;;;;;24.81;12.46;101371.69;5036617;28;20034;-77
2022/04/13 05:38:19;;;;;;;0.98;0.20;;;;;;;24.79;13.02;101376.59;5038258;28;20029;-78
2022/04/13 05:40:45;;;;;;;106.38;43.42;;;;;;;24.88;12.54;101371.47;5036572;28;20522;-78
2022/04/13 05:43:10;;;;;;;159.88;64.57;;;;;;;24.78;12.92;101371.38;5036460;28;20033;-77
2022/04/13 05:45:36;;;;;;;14.10;5.10;;;;;;;24.71;13.05;101371.56;5036030;28;20033;-77
2022/04/13 05:48:01;;;;;;;9.98;3.78;;;;;;;24.85;12.81;101378.28;5036096;28;20383;-77
2022/04/13 05:50:27;;;;;;;8.38;2.90;;;;;;;24.89;12.91;101371.22;5034946;28;20112;-76
2022/04/13 05:52:52;;;;;;;5.22;2.20;;;;;;;24.97;12.62;101382.75;5034690;28;20384;-77
2022/04/13 05:55:18;;;;;;;6.72;2.20;;;;;;;24.99;12.82;101389.63;5035145;28;20083;-77
2022/04/13 05:57:43;;;;;;;2.65;1.50;;;;;;;24.84;12.82;101384.84;5035315;28;20030;-77
2022/04/13 06:00:10;;;;;;;3.85;1.60;;;;;;;24.89;12.91;101395.81;5034223;28;20029;-77
2022/04/13 06:02:36;;;;;;;3.90;1.50;;;;;;;25.01;12.79;101392.06;5035467;28;20025;-77
2022/04/13 06:05:02;;;;;;;2.78;1.30;;;;;;;25.01;12.55;101383.88;5034661;28;20543;-77
2022/04/13 06:07:27;;;;;;;3.25;1.35;;;;;;;25.00;12.67;101395.91;5035301;28;20033;-76
2022/04/13 06:09:52;;;;;;;2.30;1.33;;;;;;;24.87;12.83;101391.69;5034469;28;20431;-76
2022/04/13 06:12:22;;;;;;;3.75;1.42;;;;;;;24.97;13.08;101396.44;5034515;28;20041;-76
2022/04/13 06:14:48;;;;;;;4.72;1.75;;;;;;;25.05;13.10;101398.69;5034181;28;20058;-76
2022/04/13 06:17:13;;;;;;;3.03;1.70;;;;;;;25.08;12.97;101399.00;5033522;28;20036;-76
2022/04/13 06:19:38;;;;;;;3.25;1.52;;;;;;;25.08;13.00;101398.19;5033716;28;20037;-76
2022/04/13 06:22:04;;;;;;;3.72;1.48;;;;;;;25.11;12.88;101403.09;5033584;28;20030;-76
2022/04/13 06:24:29;;;;;;;1.95;1.20;;;;;;;25.09;12.67;101408.00;5033488;28;20022;-77
2022/04/13 06:26:55;;;;;;;2.28;1.10;;;;;;;25.11;12.61;101414.03;5033914;28;20112;-77
2022/04/13 06:29:20;;;;;;;1.20;0.70;;;;;;;25.12;12.45;101412.97;5032334;28;20048;-75
2022/04/13 06:31:46;;;;;;;1.58;0.60;;;;;;;25.15;12.65;101415.19;5020487;28;20044;-77
2022/04/13 06:34:11;;;;;;;0.93;0.60;;;;;;;25.15;12.78;101420.66;5014201;28;20036;-76
2022/04/13 06:36:37;;;;;;;0.95;0.50;;;;;;;24.81;12.95;101423.63;5012495;28;20080;-76
2022/04/13 06:39:02;;;;;;;3.15;1.13;;;;;;;24.75;12.95;101421.94;5013808;28;20061;-76
2022/04/13 06:41:28;;;;;;;2.47;1.10;;;;;;;24.86;13.04;101422.84;5014159;28;20045;-77
2022/04/13 06:43:55;;;;;;;1.65;0.80;;;;;;;24.95;12.94;101429.50;5013494;28;20029;-76
2022/04/13 06:46:20;;;;;;;2.83;1.17;;;;;;;24.50;13.53;101427.91;5013990;28;20033;-76
2022/04/13 06:48:46;;;;;;;2.45;0.80;;;;;;;24.46;13.35;101424.03;5014413;28;20113;-76
2022/04/13 06:51:11;;;;;;;1.70;0.93;;;;;;;24.67;12.99;101425.13;5015331;28;20078;-76
2022/04/13 06:53:37;;;;;;;1.88;1.13;;;;;;;24.89;13.00;101423.16;5015117;28;20034;-77
2022/04/13 06:56:02;;;;;;;2.63;0.90;;;;;;;25.18;12.72;101431.09;5014542;28;20171;-77
2022/04/13 06:58:28;;;;;;;2.38;0.73;;;;;;;25.41;12.47;101434.59;5015438;28;20025;-76
2022/04/13 07:00:57;;;;;;;2.05;0.80;;;;;;;25.55;12.39;101430.28;5014544;28;20468;-76
2022/04/13 07:03:23;;;;;;;5.28;1.83;;;;;;;25.63;12.43;101428.97;5012828;28;20045;-76
2022/04/13 07:05:49;;;;;;;5.32;2.67;;;;;;;25.64;12.15;101422.41;5014305;28;20018;-78
2022/04/13 07:08:14;;;;;;;5.97;2.25;;;;;;;25.67;12.18;101428.19;5014065;28;20035;-76
2022/04/13 07:10:40;;;;;;;4.70;1.58;;;;;;;25.68;12.30;101432.59;5013269;28;20073;-75
2022/04/13 07:13:07;;;;;;;2.85;1.40;;;;;;;25.68;12.24;101429.84;5013810;28;20030;-77
2022/04/13 07:15:32;;;;;;;2.58;1.20;;;;;;;25.70;12.27;101436.94;5013436;28;20030;-76
2022/04/13 07:17:58;;;;;;;4.85;1.20;;;;;;;25.63;12.46;101432.56;5013671;28;20033;-78
2022/04/13 07:20:23;;;;;;;1.83;0.82;;;;;;;25.23;12.60;101433.88;5013197;28;20030;-76
2022/04/13 07:22:52;;;;;;;2.15;0.70;;;;;;;25.25;12.77;101428.97;5013630;28;20035;-77
2022/04/13 07:25:19;;;;;;;3.38;0.60;;;;;;;25.27;12.59;101428.72;5014080;28;20062;-77
2022/04/13 07:27:44;;;;;;;4.60;0.70;;;;;;;25.42;12.42;101437.06;5014341;28;20018;-78
2022/04/13 07:30:11;;;;;;;1.67;0.95;;;;;;;25.44;12.53;101437.63;4996695;28;20387;-77
2022/04/13 07:32:36;;;;;;;4.60;1.17;;;;;;;25.48;12.21;101440.66;5032629;28;20049;-77
2022/04/13 07:35:04;;;;;;;1.27;0.65;;;;;;;25.40;12.23;101436.47;5048677;28;20456;-76
2022/04/13 07:37:31;;;;;;;1.27;0.50;;;;;;;25.47;12.54;101433.50;5034136;28;20100;-77
2022/04/13 07:39:56;;;;;;;1.77;0.60;;;;;;;25.49;12.56;101432.19;5033309;28;20067;-77
2022/04/13 07:42:22;;;;;;;1.58;0.75;;;;;;;25.29;12.75;101440.22;5033361;28;20392;-75
2022/04/13 07:44:47;;;;;;;0.70;0.57;;;;;;;25.40;12.28;101441.13;5033487;28;20087;-76
2022/04/13 07:47:16;;;;;;;0.82;0.40;;;;;;;25.25;12.49;101445.41;5033631;28;20029;-77
2022/04/13 07:49:43;;;;;;;1.02;0.57;;;;;;;25.37;12.26;101436.16;5048871;28;20033;-77
2022/04/13 07:52:09;;;;;;;3.08;0.93;;;;;;;25.57;12.24;101433.59;5033661;28;20026;-77
2022/04/13 07:54:34;;;;;;;3.40;1.38;;;;;;;25.62;12.26;101435.53;5033846;28;20107;-76
2022/04/13 07:56:59;;;;;;;1.48;0.88;;;;;;;25.85;12.07;101437.06;5048898;28;20026;-77
2022/04/13 07:59:25;;;;;;;2.90;0.90;;;;;;;25.81;12.02;101435.94;5037090;28;20032;-77
2022/04/13 08:01:50;;;;;;;2.67;0.95;;;;;;;25.95;11.97;101439.88;5035491;28;20369;-77
2022/04/13 08:04:16;;;;;;;1.38;0.80;;;;;;;26.05;11.75;101439.94;5035139;28;20037;-76
2022/04/13 08:06:41;;;;;;;1.13;0.80;;;;;;;26.05;11.75;101437.19;5034190;28;20017;-77
2022/04/13 08:09:07;;;;;;;1.30;0.80;;;;;;;26.11;11.76;101440.78;5034841;28;20029;-75
2022/04/13 08:11:32;;;;;;;1.50;0.90;;;;;;;25.96;11.78;101438.81;5034082;28;20021;-76
2022/04/13 08:13:58;;;;;;;0.95;0.80;;;;;;;25.98;11.87;101439.34;5034244;28;20026;-76
2022/04/13 08:16:23;;;;;;;0.70;0.50;;;;;;;26.03;11.74;101444.84;5036899;28;20021;-76
2022/04/13 08:18:49;;;;;;;1.13;0.47;;;;;;;26.08;11.61;101444.06;5038802;28;20029;-77
2022/04/13 08:21:14;;;;;;;1.20;0.52;;;;;;;26.07;11.80;101444.34;5037089;28;20032;-76
2022/04/13 08:23:39;;;;;;;1.63;0.57;;;;;;;26.06;11.61;101440.78;5035490;28;20029;-76
2022/04/13 08:26:05;;;;;;;3.50;0.55;;;;;;;26.03;11.66;101444.03;5036180;28;20041;-76
2022/04/13 08:28:30;;;;;;;0.80;0.50;;;;;;;26.01;11.76;101447.03;5036357;28;20431;-77
2022/04/13 08:30:56;;;;;;;0.80;0.50;;;;;;;26.00;11.71;101437.16;5032353;28;20437;-76
2022/04/13 08:33:21;;;;;;;2.05;0.52;;;;;;;25.96;11.70;101440.72;5017841;28;20037;-79
2022/04/13 08:35:47;;;;;;;0.65;0.40;;;;;;;25.99;11.67;101442.91;5018492;28;20021;-76
2022/04/13 08:38:25;;;;;;;1.15;0.55;;;;;;;25.97;11.43;101437.69;5018409;28;20030;-75
2022/04/13 08:41:01;;;;;;;1.02;0.50;;;;;;;26.00;11.57;101447.31;5017459;28;20129;-78
2022/04/13 08:43:49;;;;;;;0.82;0.50;;;;;;;26.01;11.52;101438.00;5016386;28;20080;-78
2022/04/13 08:46:23;;;;;;;0.40;0.30;;;;;;;25.99;11.54;101440.16;5017351;28;20518;-77
2022/04/13 08:48:48;;;;;;;0.40;0.30;;;;;;;26.02;11.29;101443.19;5015673;28;20029;-77
2022/04/13 08:51:17;;;;;;;1.13;0.45;;;;;;;25.92;11.38;101437.63;5016679;28;20029;-77
2022/04/13 08:53:48;;;;;;;0.47;0.28;;;;;;;25.93;11.21;101436.56;5017552;28;20040;-80
2022/04/13 08:56:17;;;;;;;0.43;0.30;;;;;;;25.92;11.32;101445.84;5014531;28;20453;-81
2022/04/13 08:58:52;;;;;;;0.43;0.30;;;;;;;25.95;11.21;101445.34;5014839;28;20172;-79
2022/04/13 09:01:25;;;;;;;0.30;0.30;;;;;;;25.97;11.16;101451.38;5013757;28;20045;-78
2022/04/13 09:03:51;;;;;;;0.30;0.30;;;;;;;25.97;11.24;101459.59;5014518;28;20113;-79
2022/04/13 09:06:16;;;;;;;0.52;0.40;;;;;;;26.00;11.17;101452.78;4997812;28;20476;-78
2022/04/13 09:08:45;;;;;;;0.43;0.20;;;;;;;25.73;11.25;101441.91;4981101;28;20037;-78
2022/04/13 09:11:10;;;;;;;0.68;0.30;;;;;;;25.65;11.55;101446.78;5013848;28;20037;-77
2022/04/13 09:13:36;;;;;;;0.20;0.20;;;;;;;25.73;11.52;101441.91;4982347;28;20439;-78
2022/04/13 09:16:02;;;;;;;0.70;0.17;;;;;;;25.73;11.56;101447.38;4981305;28;20033;-78
2022/04/13 09:18:28;;;;;;;0.20;0.20;;;;;;;25.81;11.67;101449.63;5013260;28;20092;-78
2022/04/13 09:20:53;;;;;;;0.95;0.20;;;;;;;25.76;11.57;101441.38;5013204;28;20037;-78
2022/04/13 09:23:20;;;;;;;0.20;0.20;;;;;;;26.04;11.41;101449.25;5013236;28;20030;-79
2022/04/13 09:25:45;;;;;;;0.68;0.22;;;;;;;26.31;11.25;101459.22;4997070;28;20026;-79
2022/04/13 09:28:10;;;;;;;0.20;0.20;;;;;;;26.45;10.78;101464.22;5012648;28;20041;-78
2022/04/13 09:30:36;;;;;;;1.52;0.20;;;;;;;26.37;10.95;101452.69;5016674;28;20026;-78
2022/04/13 09:33:05;;;;;;;0.30;0.30;;;;;;;26.24;10.89;101455.91;5035056;28;20030;-77
2022/04/13 09:35:31;;;;;;;0.80;0.30;;;;;;;26.18;11.18;101467.94;5033586;28;20043;-79
2022/04/13 09:37:57;;;;;;;1.20;0.28;;;;;;;26.36;10.88;101461.19;5050280;28;20029;-77
2022/04/13 09:40:32;;;;;;;0.17;0.17;;;;;;;26.20;11.01;101465.78;5017403;28;20084;-78
2022/04/13 09:43:23;;;;;;;0.20;0.20;;;;;;;26.43;10.88;101457.09;5049928;28;20107;-79
2022/04/13 09:45:50;;;;;;;0.30;0.30;;;;;;;26.60;10.93;101465.09;5035652;28;20045;-78
2022/04/13 09:48:23;;;;;;;1.75;0.50;;;;;;;26.55;10.77;101461.53;5036811;28;20352;-77
2022/04/13 09:50:50;;;;;;;0.43;0.40;;;;;;;26.63;10.64;101461.03;5049035;28;20056;-78
2022/04/13 09:53:16;;;;;;;2.80;0.60;;;;;;;26.73;10.50;101455.59;5034676;28;20030;-77
2022/04/13 09:55:52;;;;;;;0.90;0.47;;;;;;;26.79;10.43;101454.50;5035080;28;20106;-77
2022/04/13 09:58:18;;;;;;;1.42;0.70;;;;;;;26.84;10.31;101458.31;5034209;28;20480;-76
2022/04/13 10:00:44;;;;;;;0.93;0.50;;;;;;;26.45;10.73;101453.25;5034160;28;20036;-77
2022/04/13 10:03:12;;;;;;;2.70;0.63;;;;;;;26.70;10.75;101461.59;5034622;28;20040;-79
2022/04/13 10:05:38;;;;;;;1.13;0.60;;;;;;;26.85;10.38;101458.06;5033198;28;20030;-79
2022/04/13 10:08:11;;;;;;;1.70;0.73;;;;;;;26.84;10.43;101461.06;5034512;28;20029;-76
2022/04/13 10:10:45;;;;;;;0.68;0.52;;;;;;;26.92;10.49;101458.66;5035080;28;20393;-77
2022/04/13 10:13:12;;;;;;;1.48;0.70;;;;;;;26.60;10.54;101462.34;5034653;28;20121;-76
2022/04/13 10:15:37;;;;;;;1.40;0.70;;;;;;;26.59;10.63;101465.38;5032358;28;20159;-75
2022/04/13 10:18:05;;;;;;;2.05;1.00;;;;;;;26.82;10.54;101477.81;5048878;28;20068;-75
2022/04/13 10:20:46;;;;;;;3.55;1.00;;;;;;;27.12;10.28;101468.78;5034391;28;20034;-76
2022/04/13 10:23:12;;;;;;;1.40;0.88;;;;;;;27.06;10.35;101466.31;5034060;28;20071;-75
2022/04/13 10:25:37;;;;;;;1.20;0.80;;;;;;;27.12;10.21;101463.31;5033849;28;20033;-76
2022/04/13 10:28:03;;;;;;;2.80;1.00;;;;;;;27.09;10.15;101458.38;5033042;28;20026;-77
2022/04/13 10:30:36;;;;;;;2.92;0.75;;;;;;;26.77;10.45;101467.66;5032459;28;20022;-75
2022/04/13 10:33:19;;;;;;;4.50;0.88;;;;;;;26.68;10.41;101462.94;5029750;28;20491;-77
2022/04/13 10:35:45;;;;;;;3.40;1.27;;;;;;;26.63;10.32;101466.53;5013141;28;20052;-76
2022/04/13 10:38:12;;;;;;;1.65;1.10;;;;;;;26.54;10.68;101468.09;5013183;28;20076;-76
2022/04/13 10:40:40;;;;;;;3.75;0.85;;;;;;;26.70;10.49;101467.09;5014250;28;20114;-76
2022/04/13 10:43:06;;;;;;;1.92;0.70;;;;;;;26.89;10.23;101475.63;5014638;28;20080;-77
2022/04/13 10:45:35;;;;;;;1.10;0.70;;;;;;;26.81;10.18;101467.13;5014193;28;20113;-78
2022/04/13 10:48:08;;;;;;;1.02;0.75;;;;;;;27.06;10.38;101467.16;5012036;28;20061;-77
2022/04/13 10:50:46;;;;;;;0.90;0.68;;;;;;;26.92;10.35;101477.00;5012708;28;20045;-76
2022/04/13 10:53:17;;;;;;;1.50;0.60;;;;;;;26.89;10.50;101474.78;5013979;28;20038;-79
2022/04/13 10:55:42;;;;;;;1.13;0.70;;;;;;;27.11;10.00;101474.56;5012600;28;20495;-75
2022/04/13 10:58:34;;;;;;;3.50;1.65;;;;;;;27.17;9.97;101459.75;5012446;28;20101;-76
2022/04/13 11:01:03;;;;;;;1.27;1.00;;;;;;;26.87;10.03;101466.00;4992343;28;20050;-76
2022/04/13 11:03:32;;;;;;;3.33;1.00;;;;;;;26.98;10.22;101467.69;4992001;28;20378;-76
2022/04/13 11:05:57;;;;;;;1.55;0.90;;;;;;;27.08;10.07;101458.63;4992179;28;20034;-76
2022/04/13 11:08:32;;;;;;;1.63;0.82;;;;;;;27.09;9.91;101458.38;4991560;28;20100;-75
2022/04/13 11:10:58;;;;;;;1.70;1.10;;;;;;;27.02;9.83;101465.22;4976590;28;20151;-76
2022/04/13 11:13:23;;;;;;;1.55;1.00;;;;;;;27.13;9.70;101466.88;4975940;28;20089;-75
2022/04/13 11:15:50;;;;;;;1.73;1.20;;;;;;;27.16;9.72;101464.44;4975488;28;20575;-75
2022/04/13 11:18:20;;;;;;;1.83;0.77;;;;;;;27.14;9.84;101466.59;4991436;28;20038;-76
2022/04/13 11:21:04;;;;;;;0.90;0.80;;;;;;;27.10;9.89;101465.50;4992321;28;20057;-75
2022/04/13 11:23:51;;;;;;;1.77;0.80;;;;;;;27.10;9.81;101460.03;4991952;28;20030;-78